Sadan Bayraktar — TCRB — position and weather

sailwx.info

Track history (hours):
 
Tides and Currents Weather Stations Pressure Air Temp Water Temp Dewpoint Dewpoint Depression Visibility Wind Speed Wind Dir Waves Ship Positions

Sadan Bayraktar

Last reported at 2016-Dec-06 21:21 UTC. Time now 2016-Dec-09 02:04 UTC.
Position N 39°24' W 000°14'.

Length 116 m; draft 7.7 m.

Type: Ship. MMSI: 271000653.

Date/timePositionNaut miles runAvg speedWind from/ knotsBaromVisibWave heightAir tempDewpointWater temp
2016-Dec-06 21:21N 39°24' W 000°14'5 6.7
2016-Dec-06 20:33N 39°27' W 000°19'0 0.0
2016-Dec-06 18:06N 39°27' W 000°19'0 0.0
2016-Dec-06 17:30N 39°27' W 000°19'0 0.0
2016-Dec-06 16:33N 39°27' W 000°19'0 0.0
2016-Dec-06 15:33N 39°27' W 000°19'0 0.0
2016-Dec-06 14:30N 39°27' W 000°19'0 0.0
2016-Dec-06 13:30N 39°27' W 000°19'0 0.0
2016-Dec-06 12:33N 39°27' W 000°19'0 0.0
2016-Dec-06 11:33N 39°27' W 000°19'0 0.0
2016-Dec-06 10:33N 39°27' W 000°19'0 0.0
2016-Dec-06 09:30N 39°27' W 000°19'0 0.0
2016-Dec-06 08:30N 39°27' W 000°19'0 0.0
2016-Dec-06 07:33N 39°27' W 000°19'0 0.0
2016-Dec-06 06:33N 39°27' W 000°19'0 0.0
2016-Dec-06 05:24N 39°27' W 000°19'0 0.0
2016-Dec-06 04:30N 39°27' W 000°19'0 0.0
2016-Dec-06 03:30N 39°27' W 000°19'0 0.0
2016-Dec-06 02:33N 39°27' W 000°19'0 0.0
2016-Dec-06 01:30N 39°27' W 000°19'0 0.0
2016-Dec-06 00:33N 39°27' W 000°19'0 0.0
2016-Dec-05 23:30N 39°27' W 000°19'5 4.9
2016-Dec-05 22:31N 39°23' W 000°16'0 0.0
2016-Dec-05 00:28N 39°23' W 000°16'4 4.2
2016-Dec-04 23:32N 39°26' W 000°13'7512.6
2016-Dec-04 17:33N 40°17' E 000°58'1312.7
2016-Dec-04 16:33N 40°25' E 001°11'1312.9
2016-Dec-04 15:33N 40°32' E 001°25'1312.4
2016-Dec-04 14:33N 40°41' E 001°38'1412.6
2016-Dec-04 13:27N 40°52' E 001°49'1112.4
2016-Dec-04 12:31N 41°01' E 001°58'5 0.3
2016-Dec-03 16:27N 41°03' E 002°04'1011.5
2016-Dec-03 15:33N 40°53' E 001°59'1212.1
2016-Dec-03 14:33N 40°42' E 001°53'1312.6
2016-Dec-03 13:33N 40°30' E 001°47'1412.1
2016-Dec-03 12:23N 40°17' E 001°40'1012.3
2016-Dec-03 11:33N 40°08' E 001°35'1212.3
2016-Dec-03 10:33N 39°56' E 001°29'1212.4
2016-Dec-03 09:33N 39°45' E 001°23'  
2016-Nov-27 07:21N 39°25' W 000°16'4 4.7
2016-Nov-27 06:33N 39°27' W 000°19'0 0.0
2016-Nov-27 05:33N 39°27' W 000°19'0 0.0
2016-Nov-27 04:33N 39°27' W 000°19'0 0.0
2016-Nov-27 03:33N 39°27' W 000°19'0 0.0
2016-Nov-27 02:33N 39°27' W 000°19'0 0.0
2016-Nov-27 01:33N 39°27' W 000°19'0 0.0
2016-Nov-27 00:33N 39°27' W 000°19'0 0.0
2016-Nov-26 23:30N 39°27' W 000°19'0 0.0
2016-Nov-26 22:33N 39°27' W 000°19'0 0.0
2016-Nov-26 21:30N 39°27' W 000°19'  
Track history (hours):
 
Tides and Currents Weather Stations Pressure Air Temp Water Temp Dewpoint Dewpoint Depression Visibility Wind Speed Wind Dir Waves Ship Positions

Sadan Bayraktar

Last reported at 2016-Dec-06 21:21 UTC. Time now 2016-Dec-09 02:04 UTC.
Position N 39°24' W 000°14'.

Length 116 m; draft 7.7 m.

Type: Ship. MMSI: 271000653.

Date/timePositionNaut miles runAvg speedWind from/ knotsBaromVisibWave heightAir tempDewpointWater temp
2016-Dec-06 21:21N 39°24' W 000°14'5 6.7
2016-Dec-06 20:33N 39°27' W 000°19'0 0.0
2016-Dec-06 18:06N 39°27' W 000°19'0 0.0
2016-Dec-06 17:30N 39°27' W 000°19'0 0.0
2016-Dec-06 16:33N 39°27' W 000°19'0 0.0
2016-Dec-06 15:33N 39°27' W 000°19'0 0.0
2016-Dec-06 14:30N 39°27' W 000°19'0 0.0
2016-Dec-06 13:30N 39°27' W 000°19'0 0.0
2016-Dec-06 12:33N 39°27' W 000°19'0 0.0
2016-Dec-06 11:33N 39°27' W 000°19'0 0.0
2016-Dec-06 10:33N 39°27' W 000°19'0 0.0
2016-Dec-06 09:30N 39°27' W 000°19'0 0.0
2016-Dec-06 08:30N 39°27' W 000°19'0 0.0
2016-Dec-06 07:33N 39°27' W 000°19'0 0.0
2016-Dec-06 06:33N 39°27' W 000°19'0 0.0
2016-Dec-06 05:24N 39°27' W 000°19'0 0.0
2016-Dec-06 04:30N 39°27' W 000°19'0 0.0
2016-Dec-06 03:30N 39°27' W 000°19'0 0.0
2016-Dec-06 02:33N 39°27' W 000°19'0 0.0
2016-Dec-06 01:30N 39°27' W 000°19'0 0.0
2016-Dec-06 00:33N 39°27' W 000°19'0 0.0
2016-Dec-05 23:30N 39°27' W 000°19'5 4.9
2016-Dec-05 22:31N 39°23' W 000°16'0 0.0
2016-Dec-05 00:28N 39°23' W 000°16'4 4.2
2016-Dec-04 23:32N 39°26' W 000°13'7512.6
2016-Dec-04 17:33N 40°17' E 000°58'1312.7
2016-Dec-04 16:33N 40°25' E 001°11'1312.9
2016-Dec-04 15:33N 40°32' E 001°25'1312.4
2016-Dec-04 14:33N 40°41' E 001°38'1412.6
2016-Dec-04 13:27N 40°52' E 001°49'1112.4
2016-Dec-04 12:31N 41°01' E 001°58'5 0.3
2016-Dec-03 16:27N 41°03' E 002°04'1011.5
2016-Dec-03 15:33N 40°53' E 001°59'1212.1
2016-Dec-03 14:33N 40°42' E 001°53'1312.6
2016-Dec-03 13:33N 40°30' E 001°47'1412.1
2016-Dec-03 12:23N 40°17' E 001°40'1012.3
2016-Dec-03 11:33N 40°08' E 001°35'1212.3
2016-Dec-03 10:33N 39°56' E 001°29'1212.4
2016-Dec-03 09:33N 39°45' E 001°23'  
2016-Nov-27 07:21N 39°25' W 000°16'4 4.7
2016-Nov-27 06:33N 39°27' W 000°19'0 0.0
2016-Nov-27 05:33N 39°27' W 000°19'0 0.0
2016-Nov-27 04:33N 39°27' W 000°19'0 0.0
2016-Nov-27 03:33N 39°27' W 000°19'0 0.0
2016-Nov-27 02:33N 39°27' W 000°19'0 0.0
2016-Nov-27 01:33N 39°27' W 000°19'0 0.0
2016-Nov-27 00:33N 39°27' W 000°19'0 0.0
2016-Nov-26 23:30N 39°27' W 000°19'0 0.0
2016-Nov-26 22:33N 39°27' W 000°19'0 0.0
2016-Nov-26 21:30N 39°27' W 000°19'  

Dump ship's entire track history